sensor_id;sensor_type;location;lat;lon;timestamp;P1;durP1;ratioP1;P2;durP2;ratioP2
74624;SDS011;63131;52.298;8.056;2023-01-29T00:01:55;21.25;;;10.07;;
74624;SDS011;63131;52.298;8.056;2023-01-29T00:04:24;20.00;;;10.25;;
74624;SDS011;63131;52.298;8.056;2023-01-29T00:06:55;21.67;;;10.05;;
74624;SDS011;63131;52.298;8.056;2023-01-29T00:09:21;21.27;;;9.40;;
74624;SDS011;63131;52.298;8.056;2023-01-29T00:11:46;22.52;;;10.05;;
74624;SDS011;63131;52.298;8.056;2023-01-29T00:14:12;22.13;;;10.80;;
74624;SDS011;63131;52.298;8.056;2023-01-29T00:16:47;25.27;;;11.00;;
74624;SDS011;63131;52.298;8.056;2023-01-29T00:19:15;21.90;;;10.23;;
74624;SDS011;63131;52.298;8.056;2023-01-29T00:21:41;21.77;;;9.90;;
74624;SDS011;63131;52.298;8.056;2023-01-29T00:24:10;22.55;;;10.48;;
74624;SDS011;63131;52.298;8.056;2023-01-29T00:26:36;26.48;;;12.25;;
74624;SDS011;63131;52.298;8.056;2023-01-29T00:29:03;22.88;;;10.50;;
74624;SDS011;63131;52.298;8.056;2023-01-29T00:31:29;21.30;;;10.23;;
74624;SDS011;63131;52.298;8.056;2023-01-29T00:33:58;25.10;;;11.40;;
74624;SDS011;63131;52.298;8.056;2023-01-29T00:36:24;22.45;;;10.07;;
74624;SDS011;63131;52.298;8.056;2023-01-29T00:38:54;21.95;;;10.13;;
74624;SDS011;63131;52.298;8.056;2023-01-29T00:41:23;24.77;;;10.50;;
74624;SDS011;63131;52.298;8.056;2023-01-29T00:44:13;23.70;;;10.43;;
74624;SDS011;63131;52.298;8.056;2023-01-29T00:46:58;19.48;;;9.73;;
74624;SDS011;63131;52.298;8.056;2023-01-29T00:49:24;25.45;;;10.27;;
74624;SDS011;63131;52.298;8.056;2023-01-29T00:51:50;23.27;;;10.68;;
74624;SDS011;63131;52.298;8.056;2023-01-29T00:54:34;27.60;;;11.65;;
74624;SDS011;63131;52.298;8.056;2023-01-29T00:57:01;24.83;;;11.38;;
74624;SDS011;63131;52.298;8.056;2023-01-29T00:59:26;22.98;;;11.25;;
74624;SDS011;63131;52.298;8.056;2023-01-29T01:01:55;22.45;;;10.85;;
74624;SDS011;63131;52.298;8.056;2023-01-29T01:04:39;22.90;;;9.55;;
74624;SDS011;63131;52.298;8.056;2023-01-29T01:07:05;22.23;;;10.48;;
74624;SDS011;63131;52.298;8.056;2023-01-29T01:09:30;19.75;;;9.73;;
74624;SDS011;63131;52.298;8.056;2023-01-29T01:12:14;22.20;;;9.95;;
74624;SDS011;63131;52.298;8.056;2023-01-29T01:14:42;23.52;;;10.32;;
74624;SDS011;63131;52.298;8.056;2023-01-29T01:17:08;21.80;;;10.60;;
74624;SDS011;63131;52.298;8.056;2023-01-29T01:19:34;20.30;;;8.93;;
74624;SDS011;63131;52.298;8.056;2023-01-29T01:22:00;23.35;;;9.73;;
74624;SDS011;63131;52.298;8.056;2023-01-29T01:24:26;21.15;;;9.38;;
74624;SDS011;63131;52.298;8.056;2023-01-29T01:26:54;21.73;;;9.30;;
74624;SDS011;63131;52.298;8.056;2023-01-29T01:29:20;22.40;;;10.73;;
74624;SDS011;63131;52.298;8.056;2023-01-29T01:31:46;19.63;;;9.68;;
74624;SDS011;63131;52.298;8.056;2023-01-29T01:34:11;25.40;;;11.45;;
74624;SDS011;63131;52.298;8.056;2023-01-29T01:36:37;21.50;;;10.13;;
74624;SDS011;63131;52.298;8.056;2023-01-29T01:39:02;23.70;;;9.57;;
74624;SDS011;63131;52.298;8.056;2023-01-29T01:41:28;24.35;;;10.77;;
74624;SDS011;63131;52.298;8.056;2023-01-29T01:43:55;23.13;;;10.30;;
74624;SDS011;63131;52.298;8.056;2023-01-29T01:46:22;25.60;;;10.65;;
74624;SDS011;63131;52.298;8.056;2023-01-29T01:48:51;21.88;;;10.60;;
74624;SDS011;63131;52.298;8.056;2023-01-29T01:51:19;23.65;;;10.68;;
74624;SDS011;63131;52.298;8.056;2023-01-29T01:53:49;21.42;;;9.60;;
74624;SDS011;63131;52.298;8.056;2023-01-29T01:56:27;21.00;;;8.88;;
74624;SDS011;63131;52.298;8.056;2023-01-29T01:59:02;22.65;;;10.30;;
74624;SDS011;63131;52.298;8.056;2023-01-29T02:01:30;23.20;;;10.60;;
74624;SDS011;63131;52.298;8.056;2023-01-29T02:04:06;19.27;;;9.52;;
74624;SDS011;63131;52.298;8.056;2023-01-29T02:09:40;18.05;;;7.72;;
74624;SDS011;63131;52.298;8.056;2023-01-29T02:12:32;29.27;;;9.98;;
74624;SDS011;63131;52.298;8.056;2023-01-29T02:15:01;23.63;;;10.35;;
74624;SDS011;63131;52.298;8.056;2023-01-29T02:17:27;21.33;;;9.65;;
74624;SDS011;63131;52.298;8.056;2023-01-29T02:19:58;22.45;;;9.70;;
74624;SDS011;63131;52.298;8.056;2023-01-29T02:22:40;19.92;;;8.93;;
74624;SDS011;63131;52.298;8.056;2023-01-29T02:25:17;20.98;;;9.70;;
74624;SDS011;63131;52.298;8.056;2023-01-29T02:30:58;23.48;;;9.77;;
74624;SDS011;63131;52.298;8.056;2023-01-29T02:33:49;19.55;;;8.73;;
74624;SDS011;63131;52.298;8.056;2023-01-29T02:41:49;21.92;;;10.07;;
74624;SDS011;63131;52.298;8.056;2023-01-29T02:44:25;22.58;;;10.20;;
74624;SDS011;63131;52.298;8.056;2023-01-29T02:47:03;23.83;;;11.57;;
74624;SDS011;63131;52.298;8.056;2023-01-29T02:49:36;22.50;;;9.32;;
74624;SDS011;63131;52.298;8.056;2023-01-29T02:52:16;22.75;;;10.05;;
74624;SDS011;63131;52.298;8.056;2023-01-29T02:58:23;20.67;;;9.63;;
74624;SDS011;63131;52.298;8.056;2023-01-29T03:01:02;22.60;;;9.15;;
74624;SDS011;63131;52.298;8.056;2023-01-29T03:03:36;20.95;;;9.57;;
74624;SDS011;63131;52.298;8.056;2023-01-29T03:06:09;25.00;;;11.02;;
74624;SDS011;63131;52.298;8.056;2023-01-29T03:08:43;23.00;;;9.70;;
74624;SDS011;63131;52.298;8.056;2023-01-29T03:11:14;21.92;;;9.02;;
74624;SDS011;63131;52.298;8.056;2023-01-29T03:13:49;22.60;;;10.73;;
74624;SDS011;63131;52.298;8.056;2023-01-29T03:16:30;21.10;;;9.82;;
74624;SDS011;63131;52.298;8.056;2023-01-29T03:19:08;23.20;;;10.48;;
74624;SDS011;63131;52.298;8.056;2023-01-29T03:24:15;22.15;;;8.02;;
74624;SDS011;63131;52.298;8.056;2023-01-29T03:27:06;22.75;;;9.57;;
74624;SDS011;63131;52.298;8.056;2023-01-29T03:29:51;20.67;;;9.38;;
74624;SDS011;63131;52.298;8.056;2023-01-29T03:32:36;18.83;;;7.60;;
74624;SDS011;63131;52.298;8.056;2023-01-29T03:35:02;20.92;;;10.23;;
74624;SDS011;63131;52.298;8.056;2023-01-29T03:37:34;20.05;;;9.52;;
74624;SDS011;63131;52.298;8.056;2023-01-29T03:40:03;24.55;;;10.45;;
74624;SDS011;63131;52.298;8.056;2023-01-29T03:48:09;20.90;;;9.05;;
74624;SDS011;63131;52.298;8.056;2023-01-29T03:51:12;21.80;;;9.65;;
74624;SDS011;63131;52.298;8.056;2023-01-29T03:54:02;21.92;;;9.57;;
74624;SDS011;63131;52.298;8.056;2023-01-29T03:56:34;22.13;;;10.43;;
74624;SDS011;63131;52.298;8.056;2023-01-29T03:59:20;22.17;;;10.05;;
74624;SDS011;63131;52.298;8.056;2023-01-29T04:02:02;22.17;;;10.20;;
74624;SDS011;63131;52.298;8.056;2023-01-29T04:04:34;21.60;;;9.85;;
74624;SDS011;63131;52.298;8.056;2023-01-29T04:07:04;23.27;;;8.35;;
74624;SDS011;63131;52.298;8.056;2023-01-29T04:09:35;22.95;;;9.38;;
74624;SDS011;63131;52.298;8.056;2023-01-29T04:12:07;25.20;;;9.82;;
74624;SDS011;63131;52.298;8.056;2023-01-29T04:14:33;23.65;;;11.38;;
74624;SDS011;63131;52.298;8.056;2023-01-29T04:16:59;21.75;;;9.32;;
74624;SDS011;63131;52.298;8.056;2023-01-29T04:19:28;21.10;;;10.05;;
74624;SDS011;63131;52.298;8.056;2023-01-29T04:21:57;22.98;;;9.90;;
74624;SDS011;63131;52.298;8.056;2023-01-29T04:24:36;21.55;;;9.63;;
74624;SDS011;63131;52.298;8.056;2023-01-29T04:29:56;20.55;;;9.18;;
74624;SDS011;63131;52.298;8.056;2023-01-29T04:35:19;20.95;;;10.10;;
74624;SDS011;63131;52.298;8.056;2023-01-29T04:38:00;19.85;;;9.70;;
74624;SDS011;63131;52.298;8.056;2023-01-29T04:40:42;20.13;;;8.90;;
74624;SDS011;63131;52.298;8.056;2023-01-29T04:43:57;22.85;;;8.85;;
74624;SDS011;63131;52.298;8.056;2023-01-29T04:46:12;19.67;;;9.13;;
74624;SDS011;63131;52.298;8.056;2023-01-29T04:49:03;21.08;;;10.07;;
74624;SDS011;63131;52.298;8.056;2023-01-29T04:51:46;21.13;;;8.07;;
74624;SDS011;63131;52.298;8.056;2023-01-29T04:57:10;25.30;;;9.82;;
74624;SDS011;63131;52.298;8.056;2023-01-29T04:59:47;21.73;;;9.13;;
74624;SDS011;63131;52.298;8.056;2023-01-29T05:02:15;23.88;;;10.77;;
74624;SDS011;63131;52.298;8.056;2023-01-29T05:04:42;22.38;;;10.80;;
74624;SDS011;63131;52.298;8.056;2023-01-29T05:07:09;23.77;;;11.80;;
74624;SDS011;63131;52.298;8.056;2023-01-29T05:09:36;22.15;;;9.88;;
74624;SDS011;63131;52.298;8.056;2023-01-29T05:14:29;23.55;;;9.70;;
74624;SDS011;63131;52.298;8.056;2023-01-29T05:16:58;23.15;;;10.50;;
74624;SDS011;63131;52.298;8.056;2023-01-29T05:19:27;24.60;;;11.13;;
74624;SDS011;63131;52.298;8.056;2023-01-29T05:21:52;23.30;;;10.55;;
74624;SDS011;63131;52.298;8.056;2023-01-29T05:24:21;26.27;;;10.75;;
74624;SDS011;63131;52.298;8.056;2023-01-29T05:26:48;25.20;;;10.85;;
74624;SDS011;63131;52.298;8.056;2023-01-29T05:29:33;22.25;;;10.00;;
74624;SDS011;63131;52.298;8.056;2023-01-29T05:31:59;26.45;;;12.32;;
74624;SDS011;63131;52.298;8.056;2023-01-29T05:34:24;24.20;;;11.00;;
74624;SDS011;63131;52.298;8.056;2023-01-29T05:36:50;24.15;;;11.68;;
74624;SDS011;63131;52.298;8.056;2023-01-29T05:39:15;26.92;;;11.25;;
74624;SDS011;63131;52.298;8.056;2023-01-29T05:41:41;25.80;;;10.88;;
74624;SDS011;63131;52.298;8.056;2023-01-29T05:44:08;27.77;;;11.25;;
74624;SDS011;63131;52.298;8.056;2023-01-29T05:46:33;25.83;;;10.82;;
74624;SDS011;63131;52.298;8.056;2023-01-29T05:48:59;26.77;;;12.23;;
74624;SDS011;63131;52.298;8.056;2023-01-29T05:51:24;24.75;;;11.10;;
74624;SDS011;63131;52.298;8.056;2023-01-29T05:53:49;25.48;;;11.30;;
74624;SDS011;63131;52.298;8.056;2023-01-29T05:56:15;27.02;;;11.52;;
74624;SDS011;63131;52.298;8.056;2023-01-29T05:58:40;23.40;;;10.15;;
74624;SDS011;63131;52.298;8.056;2023-01-29T06:01:13;26.95;;;11.77;;
74624;SDS011;63131;52.298;8.056;2023-01-29T06:03:45;26.30;;;10.93;;
74624;SDS011;63131;52.298;8.056;2023-01-29T06:06:10;23.88;;;11.00;;
74624;SDS011;63131;52.298;8.056;2023-01-29T06:08:36;25.15;;;11.15;;
74624;SDS011;63131;52.298;8.056;2023-01-29T06:11:01;25.92;;;11.88;;
74624;SDS011;63131;52.298;8.056;2023-01-29T06:13:27;29.55;;;12.63;;
74624;SDS011;63131;52.298;8.056;2023-01-29T06:15:52;26.05;;;10.85;;
74624;SDS011;63131;52.298;8.056;2023-01-29T06:18:17;24.13;;;11.77;;
74624;SDS011;63131;52.298;8.056;2023-01-29T06:20:43;28.58;;;10.77;;
74624;SDS011;63131;52.298;8.056;2023-01-29T06:23:08;23.83;;;10.40;;
74624;SDS011;63131;52.298;8.056;2023-01-29T06:25:34;24.55;;;10.32;;
74624;SDS011;63131;52.298;8.056;2023-01-29T06:27:59;27.17;;;9.98;;
74624;SDS011;63131;52.298;8.056;2023-01-29T06:30:24;27.63;;;11.13;;
74624;SDS011;63131;52.298;8.056;2023-01-29T06:32:50;25.13;;;11.10;;
74624;SDS011;63131;52.298;8.056;2023-01-29T06:35:22;23.92;;;11.65;;
74624;SDS011;63131;52.298;8.056;2023-01-29T06:37:47;26.17;;;11.50;;
74624;SDS011;63131;52.298;8.056;2023-01-29T06:40:13;24.63;;;9.88;;
74624;SDS011;63131;52.298;8.056;2023-01-29T06:42:38;26.30;;;11.55;;
74624;SDS011;63131;52.298;8.056;2023-01-29T06:45:04;24.45;;;11.55;;
74624;SDS011;63131;52.298;8.056;2023-01-29T06:47:29;26.55;;;12.38;;
74624;SDS011;63131;52.298;8.056;2023-01-29T06:49:55;23.55;;;11.00;;
74624;SDS011;63131;52.298;8.056;2023-01-29T06:52:20;26.77;;;11.90;;
74624;SDS011;63131;52.298;8.056;2023-01-29T06:54:45;25.73;;;10.63;;
74624;SDS011;63131;52.298;8.056;2023-01-29T06:57:11;26.20;;;11.75;;
74624;SDS011;63131;52.298;8.056;2023-01-29T06:59:37;24.73;;;11.77;;
74624;SDS011;63131;52.298;8.056;2023-01-29T07:02:02;24.80;;;12.13;;
74624;SDS011;63131;52.298;8.056;2023-01-29T07:04:28;27.30;;;12.07;;
74624;SDS011;63131;52.298;8.056;2023-01-29T07:06:53;27.67;;;11.60;;
74624;SDS011;63131;52.298;8.056;2023-01-29T07:09:21;24.90;;;11.50;;
74624;SDS011;63131;52.298;8.056;2023-01-29T07:11:47;27.08;;;11.65;;
74624;SDS011;63131;52.298;8.056;2023-01-29T07:14:12;25.77;;;11.98;;
74624;SDS011;63131;52.298;8.056;2023-01-29T07:16:37;26.17;;;11.30;;
74624;SDS011;63131;52.298;8.056;2023-01-29T07:19:03;27.00;;;10.52;;
74624;SDS011;63131;52.298;8.056;2023-01-29T07:21:28;24.15;;;10.38;;
74624;SDS011;63131;52.298;8.056;2023-01-29T07:23:54;27.98;;;12.45;;
74624;SDS011;63131;52.298;8.056;2023-01-29T07:26:19;26.67;;;11.40;;
74624;SDS011;63131;52.298;8.056;2023-01-29T07:28:45;28.15;;;11.43;;
74624;SDS011;63131;52.298;8.056;2023-01-29T07:31:11;25.42;;;11.38;;
74624;SDS011;63131;52.298;8.056;2023-01-29T07:36:06;26.57;;;9.30;;
74624;SDS011;63131;52.298;8.056;2023-01-29T07:38:32;22.45;;;10.35;;
74624;SDS011;63131;52.298;8.056;2023-01-29T07:40:57;33.17;;;20.73;;
74624;SDS011;63131;52.298;8.056;2023-01-29T07:43:22;26.02;;;11.05;;
74624;SDS011;63131;52.298;8.056;2023-01-29T07:45:48;23.40;;;11.38;;
74624;SDS011;63131;52.298;8.056;2023-01-29T07:48:14;22.27;;;10.30;;
74624;SDS011;63131;52.298;8.056;2023-01-29T07:50:39;19.92;;;8.90;;
74624;SDS011;63131;52.298;8.056;2023-01-29T07:53:05;23.88;;;10.25;;
74624;SDS011;63131;52.298;8.056;2023-01-29T07:55:31;23.70;;;10.25;;
74624;SDS011;63131;52.298;8.056;2023-01-29T07:57:57;24.17;;;10.45;;
74624;SDS011;63131;52.298;8.056;2023-01-29T08:00:24;25.30;;;10.18;;
74624;SDS011;63131;52.298;8.056;2023-01-29T08:02:49;25.35;;;11.15;;
74624;SDS011;63131;52.298;8.056;2023-01-29T08:05:15;24.90;;;11.05;;
74624;SDS011;63131;52.298;8.056;2023-01-29T08:07:40;24.05;;;10.45;;
74624;SDS011;63131;52.298;8.056;2023-01-29T08:10:06;25.48;;;11.20;;
74624;SDS011;63131;52.298;8.056;2023-01-29T08:12:31;22.55;;;9.55;;
74624;SDS011;63131;52.298;8.056;2023-01-29T08:14:57;22.10;;;10.25;;
74624;SDS011;63131;52.298;8.056;2023-01-29T08:17:22;21.75;;;9.85;;
74624;SDS011;63131;52.298;8.056;2023-01-29T08:19:47;24.80;;;10.57;;
74624;SDS011;63131;52.298;8.056;2023-01-29T08:22:15;21.65;;;9.38;;
74624;SDS011;63131;52.298;8.056;2023-01-29T08:24:41;28.02;;;10.25;;
74624;SDS011;63131;52.298;8.056;2023-01-29T08:27:07;22.48;;;9.48;;
74624;SDS011;63131;52.298;8.056;2023-01-29T08:29:32;21.48;;;10.48;;
74624;SDS011;63131;52.298;8.056;2023-01-29T08:31:58;21.60;;;9.73;;
74624;SDS011;63131;52.298;8.056;2023-01-29T08:34:24;20.70;;;9.73;;
74624;SDS011;63131;52.298;8.056;2023-01-29T08:36:50;22.35;;;9.90;;
74624;SDS011;63131;52.298;8.056;2023-01-29T08:39:16;27.05;;;11.30;;
74624;SDS011;63131;52.298;8.056;2023-01-29T08:41:42;21.55;;;9.32;;
74624;SDS011;63131;52.298;8.056;2023-01-29T08:44:07;22.83;;;9.93;;
74624;SDS011;63131;52.298;8.056;2023-01-29T08:46:33;18.73;;;7.60;;
74624;SDS011;63131;52.298;8.056;2023-01-29T08:48:58;24.30;;;10.02;;
74624;SDS011;63131;52.298;8.056;2023-01-29T08:51:24;23.88;;;10.45;;
74624;SDS011;63131;52.298;8.056;2023-01-29T08:53:50;23.27;;;10.13;;
74624;SDS011;63131;52.298;8.056;2023-01-29T08:56:15;19.95;;;9.68;;
74624;SDS011;63131;52.298;8.056;2023-01-29T08:58:41;22.77;;;9.90;;
74624;SDS011;63131;52.298;8.056;2023-01-29T09:01:10;21.17;;;9.18;;
74624;SDS011;63131;52.298;8.056;2023-01-29T09:03:36;20.73;;;9.57;;
74624;SDS011;63131;52.298;8.056;2023-01-29T09:06:04;17.67;;;8.63;;
74624;SDS011;63131;52.298;8.056;2023-01-29T09:08:30;20.05;;;8.88;;
74624;SDS011;63131;52.298;8.056;2023-01-29T09:10:57;22.88;;;9.32;;
74624;SDS011;63131;52.298;8.056;2023-01-29T09:13:23;26.17;;;10.50;;
74624;SDS011;63131;52.298;8.056;2023-01-29T09:15:49;20.67;;;9.18;;
74624;SDS011;63131;52.298;8.056;2023-01-29T09:18:14;19.95;;;8.23;;
74624;SDS011;63131;52.298;8.056;2023-01-29T09:20:40;24.73;;;9.98;;
74624;SDS011;63131;52.298;8.056;2023-01-29T09:23:09;20.98;;;9.20;;
74624;SDS011;63131;52.298;8.056;2023-01-29T09:25:35;25.02;;;11.35;;
74624;SDS011;63131;52.298;8.056;2023-01-29T09:28:03;24.52;;;9.73;;
74624;SDS011;63131;52.298;8.056;2023-01-29T09:33:01;22.52;;;9.68;;
74624;SDS011;63131;52.298;8.056;2023-01-29T09:35:26;21.83;;;9.77;;
74624;SDS011;63131;52.298;8.056;2023-01-29T09:37:52;22.45;;;10.10;;
74624;SDS011;63131;52.298;8.056;2023-01-29T09:40:40;21.23;;;8.95;;
74624;SDS011;63131;52.298;8.056;2023-01-29T09:45:56;22.80;;;9.15;;
74624;SDS011;63131;52.298;8.056;2023-01-29T09:48:36;21.25;;;10.02;;
74624;SDS011;63131;52.298;8.056;2023-01-29T09:51:03;19.90;;;7.63;;
74624;SDS011;63131;52.298;8.056;2023-01-29T09:56:02;21.85;;;9.43;;
74624;SDS011;63131;52.298;8.056;2023-01-29T09:58:31;19.20;;;9.23;;
74624;SDS011;63131;52.298;8.056;2023-01-29T10:03:52;22.95;;;10.13;;
74624;SDS011;63131;52.298;8.056;2023-01-29T10:09:30;24.08;;;10.25;;
74624;SDS011;63131;52.298;8.056;2023-01-29T10:23:36;21.95;;;9.88;;
74624;SDS011;63131;52.298;8.056;2023-01-29T10:26:02;24.55;;;10.75;;
74624;SDS011;63131;52.298;8.056;2023-01-29T10:28:46;18.35;;;8.93;;
74624;SDS011;63131;52.298;8.056;2023-01-29T10:31:16;21.10;;;10.05;;
74624;SDS011;63131;52.298;8.056;2023-01-29T10:33:46;25.45;;;10.98;;
74624;SDS011;63131;52.298;8.056;2023-01-29T10:36:16;20.88;;;10.63;;
74624;SDS011;63131;52.298;8.056;2023-01-29T10:38:44;21.48;;;9.30;;
74624;SDS011;63131;52.298;8.056;2023-01-29T10:49:26;21.27;;;8.40;;
74624;SDS011;63131;52.298;8.056;2023-01-29T10:52:12;21.40;;;9.57;;
74624;SDS011;63131;52.298;8.056;2023-01-29T10:57:49;22.50;;;11.02;;
74624;SDS011;63131;52.298;8.056;2023-01-29T11:00:26;18.60;;;9.10;;
74624;SDS011;63131;52.298;8.056;2023-01-29T11:02:54;24.30;;;11.60;;
74624;SDS011;63131;52.298;8.056;2023-01-29T11:05:30;19.23;;;8.98;;
74624;SDS011;63131;52.298;8.056;2023-01-29T11:08:15;23.83;;;10.35;;
74624;SDS011;63131;52.298;8.056;2023-01-29T11:13:42;24.17;;;10.75;;
74624;SDS011;63131;52.298;8.056;2023-01-29T11:16:14;20.33;;;9.35;;
74624;SDS011;63131;52.298;8.056;2023-01-29T11:21:21;21.92;;;10.60;;
74624;SDS011;63131;52.298;8.056;2023-01-29T11:23:48;21.23;;;10.98;;
74624;SDS011;63131;52.298;8.056;2023-01-29T11:26:16;23.88;;;9.90;;
74624;SDS011;63131;52.298;8.056;2023-01-29T11:28:45;21.83;;;11.00;;
74624;SDS011;63131;52.298;8.056;2023-01-29T11:33:48;22.02;;;10.68;;
74624;SDS011;63131;52.298;8.056;2023-01-29T11:36:26;20.10;;;9.30;;
74624;SDS011;63131;52.298;8.056;2023-01-29T11:39:31;18.35;;;8.48;;
74624;SDS011;63131;52.298;8.056;2023-01-29T11:44:34;22.90;;;10.07;;
74624;SDS011;63131;52.298;8.056;2023-01-29T11:49:44;26.15;;;11.20;;
74624;SDS011;63131;52.298;8.056;2023-01-29T11:52:10;21.00;;;9.35;;
74624;SDS011;63131;52.298;8.056;2023-01-29T11:57:25;23.90;;;11.85;;
74624;SDS011;63131;52.298;8.056;2023-01-29T11:59:57;20.63;;;9.95;;
74624;SDS011;63131;52.298;8.056;2023-01-29T12:02:31;22.30;;;10.40;;
74624;SDS011;63131;52.298;8.056;2023-01-29T12:05:03;24.42;;;11.57;;
74624;SDS011;63131;52.298;8.056;2023-01-29T12:07:31;25.52;;;11.75;;
74624;SDS011;63131;52.298;8.056;2023-01-29T12:09:59;23.15;;;10.98;;
74624;SDS011;63131;52.298;8.056;2023-01-29T12:12:42;17.50;;;8.70;;
74624;SDS011;63131;52.298;8.056;2023-01-29T12:21:00;21.85;;;10.45;;
74624;SDS011;63131;52.298;8.056;2023-01-29T12:23:45;25.27;;;13.20;;
74624;SDS011;63131;52.298;8.056;2023-01-29T12:26:37;26.73;;;12.13;;
74624;SDS011;63131;52.298;8.056;2023-01-29T12:29:24;21.45;;;11.02;;
74624;SDS011;63131;52.298;8.056;2023-01-29T12:34:51;24.10;;;11.55;;
74624;SDS011;63131;52.298;8.056;2023-01-29T12:37:28;24.50;;;10.45;;
74624;SDS011;63131;52.298;8.056;2023-01-29T12:40:52;22.92;;;10.90;;
74624;SDS011;63131;52.298;8.056;2023-01-29T12:43:54;21.17;;;10.52;;
74624;SDS011;63131;52.298;8.056;2023-01-29T12:46:25;23.40;;;10.25;;
74624;SDS011;63131;52.298;8.056;2023-01-29T12:48:52;24.55;;;10.00;;
74624;SDS011;63131;52.298;8.056;2023-01-29T12:51:24;21.38;;;10.40;;
74624;SDS011;63131;52.298;8.056;2023-01-29T13:02:04;20.58;;;10.63;;
74624;SDS011;63131;52.298;8.056;2023-01-29T13:04:51;25.42;;;11.57;;
74624;SDS011;63131;52.298;8.056;2023-01-29T13:07:27;24.65;;;9.98;;
74624;SDS011;63131;52.298;8.056;2023-01-29T13:10:02;26.40;;;11.70;;
74624;SDS011;63131;52.298;8.056;2023-01-29T13:15:40;21.50;;;9.07;;
74624;SDS011;63131;52.298;8.056;2023-01-29T13:20:50;23.33;;;9.95;;
74624;SDS011;63131;52.298;8.056;2023-01-29T13:23:18;23.17;;;10.88;;
74624;SDS011;63131;52.298;8.056;2023-01-29T13:26:04;18.33;;;7.97;;
74624;SDS011;63131;52.298;8.056;2023-01-29T13:28:32;26.80;;;11.38;;
74624;SDS011;63131;52.298;8.056;2023-01-29T13:31:17;26.80;;;12.02;;
74624;SDS011;63131;52.298;8.056;2023-01-29T13:36:44;24.98;;;11.90;;
74624;SDS011;63131;52.298;8.056;2023-01-29T13:39:17;23.77;;;10.63;;
74624;SDS011;63131;52.298;8.056;2023-01-29T13:41:49;25.00;;;12.18;;
74624;SDS011;63131;52.298;8.056;2023-01-29T13:44:23;29.30;;;10.55;;
74624;SDS011;63131;52.298;8.056;2023-01-29T13:46:58;26.80;;;11.57;;
74624;SDS011;63131;52.298;8.056;2023-01-29T13:49:31;25.00;;;11.48;;
74624;SDS011;63131;52.298;8.056;2023-01-29T13:52:18;23.25;;;11.18;;
74624;SDS011;63131;52.298;8.056;2023-01-29T13:54:58;25.55;;;11.00;;
74624;SDS011;63131;52.298;8.056;2023-01-29T14:00:02;23.98;;;11.05;;
74624;SDS011;63131;52.298;8.056;2023-01-29T14:02:30;27.27;;;11.05;;
74624;SDS011;63131;52.298;8.056;2023-01-29T14:05:31;24.88;;;11.15;;
74624;SDS011;63131;52.298;8.056;2023-01-29T14:07:53;22.15;;;11.02;;
74624;SDS011;63131;52.298;8.056;2023-01-29T14:10:23;25.23;;;12.07;;
74624;SDS011;63131;52.298;8.056;2023-01-29T14:12:52;24.15;;;13.07;;
74624;SDS011;63131;52.298;8.056;2023-01-29T14:20:39;28.92;;;13.65;;
74624;SDS011;63131;52.298;8.056;2023-01-29T14:25:31;25.98;;;12.05;;
74624;SDS011;63131;52.298;8.056;2023-01-29T14:27:58;28.98;;;13.38;;
74624;SDS011;63131;52.298;8.056;2023-01-29T14:32:50;28.07;;;11.43;;
74624;SDS011;63131;52.298;8.056;2023-01-29T14:35:22;27.05;;;11.93;;
74624;SDS011;63131;52.298;8.056;2023-01-29T14:37:50;25.42;;;12.25;;
74624;SDS011;63131;52.298;8.056;2023-01-29T14:40:27;28.27;;;14.00;;
74624;SDS011;63131;52.298;8.056;2023-01-29T14:45:29;27.20;;;12.98;;
74624;SDS011;63131;52.298;8.056;2023-01-29T14:58:27;26.17;;;13.57;;
74624;SDS011;63131;52.298;8.056;2023-01-29T15:00:57;29.67;;;15.23;;
74624;SDS011;63131;52.298;8.056;2023-01-29T15:03:42;29.23;;;14.63;;
74624;SDS011;63131;52.298;8.056;2023-01-29T15:06:14;31.05;;;13.93;;
74624;SDS011;63131;52.298;8.056;2023-01-29T15:08:44;30.52;;;13.13;;
74624;SDS011;63131;52.298;8.056;2023-01-29T15:11:16;34.15;;;16.08;;
74624;SDS011;63131;52.298;8.056;2023-01-29T15:14:05;28.63;;;14.80;;
74624;SDS011;63131;52.298;8.056;2023-01-29T15:17:06;31.27;;;15.23;;
74624;SDS011;63131;52.298;8.056;2023-01-29T15:19:46;28.98;;;13.80;;
74624;SDS011;63131;52.298;8.056;2023-01-29T15:25:06;27.90;;;13.32;;
74624;SDS011;63131;52.298;8.056;2023-01-29T15:27:37;32.58;;;14.23;;
74624;SDS011;63131;52.298;8.056;2023-01-29T15:30:06;27.55;;;15.20;;
74624;SDS011;63131;52.298;8.056;2023-01-29T15:32:33;31.35;;;15.45;;
74624;SDS011;63131;52.298;8.056;2023-01-29T15:35:00;33.53;;;14.40;;
74624;SDS011;63131;52.298;8.056;2023-01-29T15:37:32;30.58;;;15.73;;
74624;SDS011;63131;52.298;8.056;2023-01-29T15:39:59;31.42;;;15.07;;
74624;SDS011;63131;52.298;8.056;2023-01-29T15:42:26;37.33;;;16.52;;
74624;SDS011;63131;52.298;8.056;2023-01-29T15:44:53;30.85;;;13.80;;
74624;SDS011;63131;52.298;8.056;2023-01-29T15:47:19;37.92;;;17.42;;
74624;SDS011;63131;52.298;8.056;2023-01-29T15:49:47;34.08;;;14.95;;
74624;SDS011;63131;52.298;8.056;2023-01-29T15:55:09;33.85;;;15.40;;
74624;SDS011;63131;52.298;8.056;2023-01-29T15:57:39;33.42;;;15.05;;
74624;SDS011;63131;52.298;8.056;2023-01-29T16:00:07;31.73;;;14.77;;
74624;SDS011;63131;52.298;8.056;2023-01-29T16:02:44;29.63;;;13.88;;
74624;SDS011;63131;52.298;8.056;2023-01-29T16:05:11;33.50;;;15.32;;
74624;SDS011;63131;52.298;8.056;2023-01-29T16:07:39;30.92;;;16.67;;
74624;SDS011;63131;52.298;8.056;2023-01-29T16:10:05;33.17;;;14.68;;
74624;SDS011;63131;52.298;8.056;2023-01-29T16:12:35;32.20;;;15.15;;
74624;SDS011;63131;52.298;8.056;2023-01-29T16:15:02;32.30;;;15.75;;
74624;SDS011;63131;52.298;8.056;2023-01-29T16:17:30;31.30;;;16.10;;
74624;SDS011;63131;52.298;8.056;2023-01-29T16:20:03;29.02;;;14.65;;
74624;SDS011;63131;52.298;8.056;2023-01-29T16:22:33;29.25;;;14.88;;
74624;SDS011;63131;52.298;8.056;2023-01-29T16:25:00;31.70;;;15.23;;
74624;SDS011;63131;52.298;8.056;2023-01-29T16:27:29;34.95;;;15.50;;
74624;SDS011;63131;52.298;8.056;2023-01-29T16:29:55;30.65;;;14.80;;
74624;SDS011;63131;52.298;8.056;2023-01-29T16:32:20;33.47;;;15.65;;
74624;SDS011;63131;52.298;8.056;2023-01-29T16:34:46;31.55;;;17.88;;
74624;SDS011;63131;52.298;8.056;2023-01-29T16:37:21;33.30;;;16.63;;
74624;SDS011;63131;52.298;8.056;2023-01-29T16:39:49;29.77;;;14.00;;
74624;SDS011;63131;52.298;8.056;2023-01-29T16:42:23;30.77;;;15.60;;
74624;SDS011;63131;52.298;8.056;2023-01-29T16:47:22;31.88;;;15.02;;
74624;SDS011;63131;52.298;8.056;2023-01-29T16:49:56;32.95;;;14.93;;
74624;SDS011;63131;52.298;8.056;2023-01-29T16:52:24;36.78;;;14.65;;
74624;SDS011;63131;52.298;8.056;2023-01-29T16:54:58;32.15;;;15.60;;
74624;SDS011;63131;52.298;8.056;2023-01-29T16:57:25;35.58;;;17.70;;
74624;SDS011;63131;52.298;8.056;2023-01-29T16:59:56;34.47;;;15.90;;
74624;SDS011;63131;52.298;8.056;2023-01-29T17:02:26;31.70;;;16.63;;
74624;SDS011;63131;52.298;8.056;2023-01-29T17:04:55;30.13;;;14.73;;
74624;SDS011;63131;52.298;8.056;2023-01-29T17:07:22;35.47;;;16.27;;
74624;SDS011;63131;52.298;8.056;2023-01-29T17:09:49;32.15;;;14.93;;
74624;SDS011;63131;52.298;8.056;2023-01-29T17:12:17;39.45;;;16.25;;
74624;SDS011;63131;52.298;8.056;2023-01-29T17:17:54;34.50;;;15.32;;
74624;SDS011;63131;52.298;8.056;2023-01-29T17:20:20;31.67;;;14.48;;